createdAt,value
2022-11-19T00:00:45.662Z,2.00
2022-11-19T00:03:13.158Z,1.23
2022-11-19T00:05:42.343Z,1.13
2022-11-19T00:08:10.127Z,1.20
2022-11-19T00:10:38.059Z,1.60
2022-11-19T00:13:04.970Z,1.00
2022-11-19T00:15:34.325Z,1.17
2022-11-19T00:18:01.874Z,0.93
2022-11-19T00:20:30.172Z,1.53
2022-11-19T00:22:59.022Z,2.00
2022-11-19T00:25:27.819Z,0.80
2022-11-19T00:27:56.565Z,0.90
2022-11-19T00:30:47.131Z,1.10
2022-11-19T00:33:11.466Z,1.00
2022-11-19T00:35:38.882Z,1.00
2022-11-19T00:38:07.694Z,2.43
2022-11-19T00:40:35.118Z,1.00
2022-11-19T00:43:21.901Z,1.50
2022-11-19T00:45:50.242Z,1.17
2022-11-19T00:48:17.733Z,1.20
2022-11-19T00:50:45.217Z,1.37
2022-11-19T00:53:14.050Z,1.80
2022-11-19T00:55:41.498Z,1.03
2022-11-19T00:58:08.932Z,1.10
2022-11-19T01:00:36.453Z,1.50
2022-11-19T01:03:03.936Z,1.20
2022-11-19T01:05:31.358Z,2.00
2022-11-19T01:07:59.523Z,1.00
2022-11-19T01:10:28.362Z,1.40
2022-11-19T01:13:13.308Z,1.07
2022-11-19T01:15:40.959Z,1.30
2022-11-19T01:18:08.450Z,1.10
2022-11-19T01:20:35.954Z,1.33
2022-11-19T01:23:03.470Z,1.10
2022-11-19T01:25:32.494Z,1.40
2022-11-19T01:27:59.992Z,1.10
2022-11-19T01:30:27.504Z,1.20
2022-11-19T01:32:55.220Z,1.00
2022-11-19T01:35:22.716Z,1.20
2022-11-19T01:37:50.185Z,1.30
2022-11-19T01:40:17.617Z,0.97
2022-11-19T01:42:53.785Z,1.20
2022-11-19T01:45:27.078Z,1.10
2022-11-19T01:47:54.997Z,1.10
2022-11-19T01:50:23.063Z,1.10
2022-11-19T01:52:50.732Z,1.10
2022-11-19T01:55:19.374Z,1.30
2022-11-19T01:57:53.130Z,1.07
2022-11-19T02:00:20.660Z,1.27
2022-11-19T02:02:48.088Z,1.30
2022-11-19T02:05:16.223Z,1.00
2022-11-19T02:07:44.649Z,1.40
2022-11-19T02:10:12.434Z,1.60
2022-11-19T02:12:43.086Z,1.20
2022-11-19T02:15:21.331Z,1.10
2022-11-19T02:17:57.826Z,1.93
2022-11-19T02:20:34.154Z,1.50
2022-11-19T02:23:22.473Z,1.00
2022-11-19T02:26:00.950Z,1.00
2022-11-19T02:28:32.662Z,1.60
2022-11-19T02:31:04.535Z,1.20
2022-11-19T02:33:37.048Z,1.00
2022-11-19T02:36:08.744Z,1.20
2022-11-19T02:38:38.890Z,1.20
2022-11-19T02:41:29.639Z,1.30
2022-11-19T02:44:21.849Z,2.07
2022-11-19T02:46:52.744Z,1.50
2022-11-19T02:49:21.923Z,1.70
2022-11-19T02:51:50.127Z,3.40
2022-11-19T02:54:17.686Z,1.60
2022-11-19T02:56:49.735Z,2.07
2022-11-19T02:59:35.882Z,2.13
2022-11-19T03:02:23.619Z,1.37
2022-11-19T03:04:51.070Z,2.10
2022-11-19T03:07:19.546Z,1.67
2022-11-19T03:09:49.458Z,1.80
2022-11-19T03:12:22.564Z,1.70
2022-11-19T03:15:11.490Z,1.90
2022-11-19T03:17:46.944Z,1.50
2022-11-19T03:20:21.140Z,2.70
2022-11-19T03:22:51.637Z,1.83
2022-11-19T03:25:22.270Z,2.10
2022-11-19T03:27:51.643Z,1.90
2022-11-19T03:30:19.853Z,1.73
2022-11-19T03:32:51.422Z,1.90
2022-11-19T03:35:21.215Z,1.80
2022-11-19T03:37:51.648Z,1.73
2022-11-19T03:40:20.148Z,1.60
2022-11-19T03:42:49.050Z,1.77
2022-11-19T03:45:18.341Z,1.70
2022-11-19T03:47:47.107Z,2.50
2022-11-19T03:50:18.110Z,1.83
2022-11-19T03:52:45.714Z,1.97
2022-11-19T03:55:13.454Z,1.77
2022-11-19T03:57:40.978Z,1.80
2022-11-19T04:00:09.170Z,2.93
2022-11-19T04:02:42.697Z,1.60
2022-11-19T04:05:10.320Z,1.80
2022-11-19T04:07:39.181Z,1.63
2022-11-19T04:10:07.168Z,1.80
2022-11-19T04:12:34.622Z,2.10
2022-11-19T04:15:02.132Z,2.10
2022-11-19T04:17:29.562Z,1.50
2022-11-19T04:19:57.044Z,2.27
2022-11-19T04:22:24.514Z,1.70
2022-11-19T04:24:53.374Z,1.70
2022-11-19T04:27:20.877Z,2.03
2022-11-19T04:29:48.349Z,1.73
2022-11-19T04:32:15.821Z,1.60
2022-11-19T04:34:43.249Z,1.50
2022-11-19T04:37:10.728Z,1.47
2022-11-19T04:39:38.178Z,1.67
2022-11-19T04:42:07.070Z,1.93
2022-11-19T04:44:34.555Z,1.70
2022-11-19T04:47:01.994Z,1.73
2022-11-19T04:49:29.426Z,1.90
2022-11-19T04:51:56.855Z,1.60
2022-11-19T04:54:24.321Z,1.60
2022-11-19T04:56:51.782Z,2.40
2022-11-19T04:59:20.844Z,2.00
2022-11-19T05:01:49.302Z,1.60
2022-11-19T05:04:16.836Z,2.53
2022-11-19T05:06:44.247Z,1.70
2022-11-19T05:09:11.957Z,1.80
2022-11-19T05:11:39.390Z,1.80
2022-11-19T05:14:06.845Z,1.77
2022-11-19T05:16:35.706Z,1.57
2022-11-19T05:19:03.170Z,1.90
2022-11-19T05:21:30.638Z,1.60
2022-11-19T05:23:58.067Z,1.60
2022-11-19T05:26:25.486Z,2.10
2022-11-19T05:28:52.905Z,1.70
2022-11-19T05:31:20.362Z,1.53
2022-11-19T05:33:49.169Z,2.10
2022-11-19T05:36:16.636Z,2.27
2022-11-19T05:38:44.028Z,2.57
2022-11-19T05:41:11.447Z,1.73
2022-11-19T05:43:38.985Z,2.10
2022-11-19T05:46:06.640Z,1.73
2022-11-19T05:48:34.054Z,1.83
2022-11-19T05:51:02.907Z,1.67
2022-11-19T05:53:30.369Z,1.70
2022-11-19T05:55:57.794Z,2.07
2022-11-19T05:58:25.258Z,2.00
2022-11-19T06:00:55.184Z,2.07
2022-11-19T06:03:22.614Z,2.13
2022-11-19T06:05:50.098Z,1.83
2022-11-19T06:08:18.896Z,2.00
2022-11-19T06:10:46.365Z,1.87
2022-11-19T06:13:13.991Z,3.87
2022-11-19T06:15:41.478Z,3.13
2022-11-19T06:18:08.971Z,3.07
2022-11-19T06:20:36.434Z,3.17
2022-11-19T06:23:03.895Z,2.90
2022-11-19T06:25:32.689Z,2.80
2022-11-19T06:28:00.169Z,2.67
2022-11-19T06:30:27.990Z,2.60
2022-11-19T06:32:55.507Z,2.60
2022-11-19T06:35:22.991Z,2.50
2022-11-19T06:37:50.457Z,2.67
2022-11-19T06:40:17.986Z,2.40
2022-11-19T06:42:50.780Z,3.53
2022-11-19T06:45:18.596Z,2.40
2022-11-19T06:47:48.323Z,2.57
2022-11-19T06:50:15.778Z,4.20
2022-11-19T06:52:43.216Z,4.50
2022-11-19T06:55:10.740Z,4.47
2022-11-19T06:57:38.173Z,5.60
2022-11-19T07:00:07.635Z,3.87
2022-11-19T07:02:35.089Z,2.90
2022-11-19T07:05:02.523Z,3.10
2022-11-19T07:07:30.050Z,3.10
2022-11-19T07:09:57.553Z,3.50
2022-11-19T07:12:25.001Z,3.47
2022-11-19T07:14:52.557Z,3.10
2022-11-19T07:17:21.338Z,3.30
2022-11-19T07:19:48.768Z,2.90
2022-11-19T07:22:16.230Z,2.60
2022-11-19T07:24:43.705Z,2.70
2022-11-19T07:27:11.198Z,2.80
2022-11-19T07:29:39.192Z,2.77
2022-11-19T07:32:06.678Z,3.10
2022-11-19T07:34:35.529Z,2.77
2022-11-19T07:37:03.261Z,3.03
2022-11-19T07:39:30.754Z,3.40
2022-11-19T07:42:15.685Z,3.20
2022-11-19T07:44:45.118Z,3.20
2022-11-19T07:47:12.733Z,2.73
2022-11-19T07:49:41.554Z,2.70
2022-11-19T07:52:09.041Z,2.50
2022-11-19T07:54:36.708Z,2.83
2022-11-19T07:57:04.111Z,2.70
2022-11-19T07:59:31.559Z,2.60
2022-11-19T08:01:59.212Z,3.20
2022-11-19T08:04:28.133Z,3.20
2022-11-19T08:06:57.018Z,2.77
2022-11-19T08:09:24.559Z,2.93
2022-11-19T08:11:52.008Z,3.10
2022-11-19T08:14:19.476Z,3.10
2022-11-19T08:17:04.290Z,2.93
2022-11-19T08:19:31.724Z,2.60
2022-11-19T08:22:00.567Z,5.27
2022-11-19T08:24:28.095Z,2.50
2022-11-19T08:26:55.584Z,2.50
2022-11-19T08:29:23.810Z,2.53
2022-11-19T08:31:51.859Z,2.73
2022-11-19T08:34:19.747Z,2.10
2022-11-19T08:36:47.351Z,2.10
2022-11-19T08:39:16.239Z,1.90
2022-11-19T08:42:01.748Z,1.90
2022-11-19T08:44:29.219Z,1.97
2022-11-19T08:46:56.739Z,1.87
2022-11-19T08:49:24.204Z,2.40
2022-11-19T08:51:51.679Z,1.70
2022-11-19T08:54:20.934Z,1.80
2022-11-19T08:56:48.738Z,1.90
2022-11-19T08:59:16.207Z,2.73
2022-11-19T09:01:43.628Z,1.73
2022-11-19T09:04:11.296Z,6.50
2022-11-19T09:06:38.826Z,2.77
2022-11-19T09:09:06.283Z,2.77
2022-11-19T09:11:39.899Z,2.03
2022-11-19T09:14:10.072Z,1.60
2022-11-19T09:16:37.505Z,1.70
2022-11-19T09:19:04.998Z,1.73
2022-11-19T09:21:32.474Z,1.73
2022-11-19T09:23:59.996Z,1.80
2022-11-19T09:26:27.485Z,1.90
2022-11-19T09:28:56.352Z,1.70
2022-11-19T09:31:23.818Z,1.57
2022-11-19T09:33:52.130Z,1.50
2022-11-19T09:36:19.763Z,3.30
2022-11-19T09:38:47.470Z,1.50
2022-11-19T09:41:24.384Z,1.50
2022-11-19T09:43:56.537Z,2.87
2022-11-19T09:46:28.420Z,2.53
2022-11-19T09:48:56.660Z,1.43
2022-11-19T09:51:29.151Z,2.87
2022-11-19T09:54:00.449Z,2.73
2022-11-19T09:56:30.987Z,3.83
2022-11-19T09:58:59.289Z,2.23
2022-11-19T10:01:30.229Z,2.57
2022-11-19T10:03:57.748Z,1.47
2022-11-19T10:06:28.573Z,1.50
2022-11-19T10:09:18.412Z,3.67
2022-11-19T10:11:52.753Z,1.80
2022-11-19T10:14:32.058Z,3.37
2022-11-19T10:17:05.452Z,1.83
2022-11-19T10:19:40.943Z,1.50
2022-11-19T10:22:10.522Z,1.67
2022-11-19T10:24:42.200Z,2.67
2022-11-19T10:27:14.132Z,4.53
2022-11-19T10:29:41.572Z,2.83
2022-11-19T10:32:19.601Z,1.60
2022-11-19T10:34:47.274Z,3.07
2022-11-19T10:37:17.278Z,3.27
2022-11-19T10:39:47.697Z,1.47
2022-11-19T10:42:20.136Z,4.20
2022-11-19T10:44:51.381Z,1.67
2022-11-19T10:47:22.543Z,1.60
2022-11-19T10:49:52.534Z,3.10
2022-11-19T10:52:25.674Z,4.20
2022-11-19T10:54:55.594Z,1.50
2022-11-19T10:57:24.033Z,3.77
2022-11-19T10:59:53.299Z,1.23
2022-11-19T11:02:27.967Z,3.40
2022-11-19T11:05:03.959Z,2.40
2022-11-19T11:07:50.490Z,1.70
2022-11-19T11:10:44.058Z,3.67
2022-11-19T11:13:37.104Z,4.30
2022-11-19T11:16:09.031Z,1.63
2022-11-19T11:18:40.516Z,3.33
2022-11-19T11:21:09.068Z,3.37
2022-11-19T11:23:47.077Z,3.03
2022-11-19T11:26:19.307Z,5.53
2022-11-19T11:28:54.533Z,2.53
2022-11-19T11:31:29.343Z,2.33
2022-11-19T11:33:58.787Z,1.30
2022-11-19T11:36:27.479Z,3.00
2022-11-19T11:38:56.389Z,1.80
2022-11-19T11:44:18.811Z,2.90
2022-11-19T11:46:47.787Z,1.27
2022-11-19T11:49:28.041Z,1.40
2022-11-19T11:51:57.067Z,2.83
2022-11-19T11:54:24.487Z,1.20
2022-11-19T11:56:52.024Z,2.77
2022-11-19T11:59:26.929Z,2.73
2022-11-19T12:01:55.399Z,2.13
2022-11-19T12:04:23.483Z,4.77
2022-11-19T12:06:57.945Z,3.47
2022-11-19T12:09:28.626Z,2.30
2022-11-19T12:11:58.930Z,3.40
2022-11-19T12:14:28.181Z,2.37
2022-11-19T12:17:06.978Z,1.70
2022-11-19T12:19:41.427Z,3.07
2022-11-19T12:22:14.503Z,3.57
2022-11-19T12:24:52.274Z,1.50
2022-11-19T12:27:22.707Z,1.77
2022-11-19T12:29:55.515Z,1.60
2022-11-19T12:32:32.351Z,3.23
2022-11-19T12:35:24.110Z,2.97
2022-11-19T12:37:56.377Z,1.60
2022-11-19T12:40:36.627Z,1.90
2022-11-19T12:43:11.129Z,4.87
2022-11-19T12:45:42.890Z,1.87
2022-11-19T12:48:24.191Z,1.43
2022-11-19T12:50:56.574Z,1.70
2022-11-19T12:53:28.678Z,2.50
2022-11-19T12:56:01.931Z,5.47
2022-11-19T12:58:35.969Z,2.23
2022-11-19T13:01:05.357Z,2.57
2022-11-19T13:03:41.890Z,2.07
2022-11-19T13:06:14.066Z,1.43
2022-11-19T13:08:49.309Z,3.00
2022-11-19T13:11:18.463Z,2.90
2022-11-19T13:13:48.871Z,1.90
2022-11-19T13:16:17.237Z,2.70
2022-11-19T13:18:46.207Z,2.20
2022-11-19T13:21:16.844Z,1.40
2022-11-19T13:23:48.200Z,2.17
2022-11-19T13:26:16.956Z,1.77
2022-11-19T13:28:46.736Z,3.27
2022-11-19T13:31:16.993Z,1.77
2022-11-19T13:33:46.773Z,2.90
2022-11-19T13:36:16.867Z,2.60
2022-11-19T13:38:47.458Z,2.40
2022-11-19T13:41:19.793Z,2.87
2022-11-19T13:44:04.966Z,2.30
2022-11-19T13:46:34.998Z,2.00
2022-11-19T13:49:04.739Z,2.97
2022-11-19T13:51:34.355Z,2.67
2022-11-19T13:54:03.540Z,1.77
2022-11-19T13:56:45.101Z,3.30
2022-11-19T13:59:27.370Z,1.53
2022-11-19T14:02:00.342Z,2.73
2022-11-19T14:04:34.978Z,1.53
2022-11-19T14:07:22.295Z,2.17
2022-11-19T14:09:53.262Z,2.97
2022-11-19T14:12:29.404Z,1.67
2022-11-19T14:15:20.830Z,2.30
2022-11-19T14:18:08.841Z,2.60
2022-11-19T14:20:55.223Z,1.50
2022-11-19T14:23:56.045Z,2.73
2022-11-19T14:26:42.090Z,1.10
2022-11-19T14:29:30.919Z,1.97
2022-11-19T14:32:16.838Z,1.63
2022-11-19T14:34:47.725Z,1.40
2022-11-19T14:37:19.952Z,2.23
2022-11-19T14:39:51.764Z,1.60
2022-11-19T14:42:20.065Z,2.60
2022-11-19T14:44:47.722Z,2.73
2022-11-19T14:47:34.915Z,1.50
2022-11-19T14:50:05.036Z,2.57
2022-11-19T14:52:33.681Z,3.03
2022-11-19T14:55:02.990Z,2.30
2022-11-19T14:57:32.087Z,1.23
2022-11-19T15:00:01.062Z,1.57
2022-11-19T15:02:31.448Z,1.30
2022-11-19T15:05:01.996Z,1.57
2022-11-19T15:07:41.634Z,1.30
2022-11-19T15:10:24.773Z,1.67
2022-11-19T15:13:02.731Z,2.73
2022-11-19T15:15:38.572Z,3.73
2022-11-19T15:18:26.016Z,2.10
2022-11-19T15:21:06.089Z,2.17
2022-11-19T15:23:36.429Z,3.93
2022-11-19T15:26:09.091Z,2.83
2022-11-19T15:28:42.525Z,3.17
2022-11-19T15:31:17.260Z,5.77
2022-11-19T15:33:57.033Z,2.60
2022-11-19T15:36:42.710Z,3.40
2022-11-19T15:39:13.081Z,2.83
2022-11-19T15:41:43.439Z,2.03
2022-11-19T15:44:16.420Z,1.80
2022-11-19T15:46:45.634Z,2.00
2022-11-19T15:49:17.522Z,1.70
2022-11-19T15:51:50.755Z,1.73
2022-11-19T15:54:19.580Z,2.20
2022-11-19T15:56:48.926Z,2.83
2022-11-19T15:59:18.770Z,1.67
2022-11-19T16:01:47.208Z,1.87
2022-11-19T16:04:16.190Z,2.00
2022-11-19T16:06:44.695Z,1.90
2022-11-19T16:09:17.342Z,2.70
2022-11-19T16:12:04.565Z,3.03
2022-11-19T16:14:49.393Z,2.60
2022-11-19T16:17:43.101Z,2.20
2022-11-19T16:20:22.312Z,2.93
2022-11-19T16:22:55.997Z,6.60
2022-11-19T16:25:41.450Z,9.13
2022-11-19T16:28:13.251Z,6.67
2022-11-19T16:30:43.445Z,4.47
2022-11-19T16:33:14.416Z,4.67
2022-11-19T16:35:41.883Z,3.20
2022-11-19T16:38:12.139Z,4.17
2022-11-19T16:40:53.535Z,4.73
2022-11-19T16:43:22.653Z,7.27
2022-11-19T16:45:50.209Z,7.77
2022-11-19T16:48:32.617Z,9.67
2022-11-19T16:51:20.141Z,5.63
2022-11-19T16:53:47.978Z,3.57
2022-11-19T16:56:17.041Z,3.57
2022-11-19T16:58:46.282Z,2.53
2022-11-19T17:01:18.521Z,3.40
2022-11-19T17:03:46.121Z,2.50
2022-11-19T17:06:20.628Z,2.80
2022-11-19T17:08:55.665Z,2.60
2022-11-19T17:11:41.685Z,2.80
2022-11-19T17:14:19.455Z,2.97
2022-11-19T17:16:47.959Z,1.90
2022-11-19T17:19:16.807Z,2.03
2022-11-19T17:21:49.866Z,1.97
2022-11-19T17:24:21.505Z,2.07
2022-11-19T17:26:51.534Z,2.27
2022-11-19T17:29:23.228Z,2.03
2022-11-19T17:31:52.147Z,1.80
2022-11-19T17:34:24.390Z,2.57
2022-11-19T17:36:51.794Z,5.33
2022-11-19T17:39:25.001Z,4.27
2022-11-19T17:42:11.861Z,1.93
2022-11-19T17:44:40.958Z,3.13
2022-11-19T17:47:21.787Z,2.20
2022-11-19T17:49:50.651Z,3.23
2022-11-19T17:52:22.270Z,2.63
2022-11-19T17:54:50.138Z,1.83
2022-11-19T17:57:17.546Z,2.00
2022-11-19T17:59:46.330Z,4.60
2022-11-19T18:02:15.536Z,3.77
2022-11-19T18:04:43.884Z,3.40
2022-11-19T18:07:11.543Z,4.67
2022-11-19T18:09:39.086Z,4.10
2022-11-19T18:12:07.022Z,3.13
2022-11-19T18:14:34.611Z,2.80
2022-11-19T18:17:03.923Z,2.33
2022-11-19T18:19:31.354Z,2.30
2022-11-19T18:21:58.802Z,2.90
2022-11-19T18:24:26.510Z,3.90
2022-11-19T18:26:54.178Z,7.67
2022-11-19T18:29:22.532Z,7.53
2022-11-19T18:31:51.168Z,4.70
2022-11-19T18:34:21.199Z,4.53
2022-11-19T18:36:48.676Z,4.80
2022-11-19T18:39:16.307Z,2.50
2022-11-19T18:41:44.026Z,3.13
2022-11-19T18:44:30.999Z,3.20
2022-11-19T18:46:58.508Z,5.17
2022-11-19T18:49:27.494Z,4.73
2022-11-19T18:51:54.926Z,3.30
2022-11-19T18:54:22.362Z,3.73
2022-11-19T18:56:49.839Z,3.30
2022-11-19T18:59:17.539Z,3.50
2022-11-19T19:01:45.065Z,3.47
2022-11-19T19:04:14.426Z,3.53
2022-11-19T19:06:43.432Z,3.87
2022-11-19T19:09:11.738Z,4.70
2022-11-19T19:11:56.875Z,3.33
2022-11-19T19:14:24.389Z,4.33
2022-11-19T19:16:53.273Z,4.60
2022-11-19T19:19:20.993Z,8.97
2022-11-19T19:21:49.930Z,11.83
2022-11-19T19:24:17.753Z,16.70
2022-11-19T19:26:45.233Z,10.47
2022-11-19T19:29:12.755Z,8.20
2022-11-19T19:31:40.240Z,10.33
2022-11-19T19:34:07.706Z,8.70
2022-11-19T19:36:35.138Z,5.50
2022-11-19T19:39:04.487Z,6.83
2022-11-19T19:41:31.948Z,5.67
2022-11-19T19:44:01.101Z,3.90
2022-11-19T19:46:28.606Z,4.30
2022-11-19T19:48:56.789Z,3.00
2022-11-19T19:51:25.109Z,3.20
2022-11-19T19:53:53.464Z,2.73
2022-11-19T19:56:23.122Z,3.40
2022-11-19T19:58:51.538Z,5.00
2022-11-19T20:01:20.129Z,3.77
2022-11-19T20:03:51.756Z,3.93
2022-11-19T20:06:22.854Z,3.97
2022-11-19T20:08:50.312Z,3.60
2022-11-19T20:11:18.842Z,3.37
2022-11-19T20:13:48.259Z,4.10
2022-11-19T20:16:18.494Z,2.60
2022-11-19T20:18:46.759Z,3.10
2022-11-19T20:21:15.405Z,2.80
2022-11-19T20:23:43.196Z,2.83
2022-11-19T20:26:12.304Z,2.60
2022-11-19T20:28:39.781Z,2.60
2022-11-19T20:31:09.374Z,3.10
2022-11-19T20:33:37.025Z,2.80
2022-11-19T20:36:05.248Z,3.03
2022-11-19T20:38:32.795Z,16.90
2022-11-19T20:41:02.476Z,5.20
2022-11-19T20:43:52.579Z,7.80
2022-11-19T20:46:22.520Z,6.53
2022-11-19T20:48:50.018Z,9.10
2022-11-19T20:51:19.749Z,7.30
2022-11-19T20:53:47.211Z,7.23
2022-11-19T20:56:14.945Z,6.90
2022-11-19T20:58:43.965Z,5.80
2022-11-19T21:01:11.555Z,6.30
2022-11-19T21:03:40.388Z,7.20
2022-11-19T21:06:08.151Z,5.37
2022-11-19T21:08:36.304Z,5.13
2022-11-19T21:11:04.472Z,5.33
2022-11-19T21:13:32.234Z,5.70
2022-11-19T21:16:00.182Z,5.70
2022-11-19T21:18:33.731Z,5.17
2022-11-19T21:21:06.844Z,5.33
2022-11-19T21:23:34.412Z,4.73
2022-11-19T21:26:02.312Z,5.13
2022-11-19T21:28:30.013Z,4.70
2022-11-19T21:30:57.460Z,4.83
2022-11-19T21:33:26.380Z,4.13
2022-11-19T21:35:54.838Z,4.50
2022-11-19T21:38:24.194Z,4.37
2022-11-19T21:40:52.191Z,3.83
2022-11-19T21:43:19.908Z,3.80
2022-11-19T21:45:48.875Z,3.40
2022-11-19T21:48:16.440Z,3.80
2022-11-19T21:50:44.098Z,4.87
2022-11-19T21:53:12.248Z,4.17
2022-11-19T21:55:42.325Z,4.03
2022-11-19T21:58:10.713Z,3.93
2022-11-19T22:00:38.224Z,3.87
2022-11-19T22:03:06.243Z,3.87
2022-11-19T22:05:34.049Z,4.50
2022-11-19T22:08:04.005Z,4.23
2022-11-19T22:10:31.627Z,4.10
2022-11-19T22:13:00.433Z,4.37
2022-11-19T22:15:28.737Z,5.03
2022-11-19T22:17:56.186Z,3.50
2022-11-19T22:20:25.200Z,3.23
2022-11-19T22:22:52.630Z,3.13
2022-11-19T22:25:20.063Z,4.13
2022-11-19T22:27:47.499Z,3.00
2022-11-19T22:30:16.588Z,2.83
2022-11-19T22:32:44.093Z,2.50
2022-11-19T22:35:11.605Z,2.90
2022-11-19T22:37:39.070Z,3.00
2022-11-19T22:40:07.018Z,2.77
2022-11-19T22:42:34.485Z,3.17
2022-11-19T22:45:04.879Z,3.33
2022-11-19T22:47:33.705Z,3.10
2022-11-19T22:50:02.035Z,3.13
2022-11-19T22:52:29.695Z,3.87
2022-11-19T22:54:57.143Z,3.23
2022-11-19T22:57:25.505Z,3.13
2022-11-19T22:59:52.931Z,3.63
2022-11-19T23:02:20.354Z,3.30
2022-11-19T23:04:49.177Z,3.03
2022-11-19T23:07:16.749Z,3.10
2022-11-19T23:09:44.210Z,3.13
2022-11-19T23:12:29.274Z,3.30
2022-11-19T23:14:56.730Z,3.67
2022-11-19T23:17:24.201Z,3.80
2022-11-19T23:19:53.025Z,3.90
2022-11-19T23:22:20.459Z,4.10
2022-11-19T23:24:47.880Z,4.20
2022-11-19T23:27:20.790Z,4.27
2022-11-19T23:29:49.493Z,4.03
2022-11-19T23:32:16.922Z,3.90
2022-11-19T23:34:44.996Z,4.20
2022-11-19T23:37:13.794Z,4.37
2022-11-19T23:39:41.185Z,4.17
2022-11-19T23:42:08.715Z,3.77
2022-11-19T23:44:36.230Z,3.63
2022-11-19T23:47:04.391Z,4.40
2022-11-19T23:49:31.823Z,5.83
2022-11-19T23:51:59.297Z,4.33
2022-11-19T23:54:28.074Z,4.30
2022-11-19T23:56:55.553Z,4.40
2022-11-19T23:59:25.818Z,3.73
